sensor_id;sensor_type;location;lat;lon;timestamp;P1;durP1;ratioP1;P2;durP2;ratioP2
46651;SDS011;32377;52.182;5.398;2023-08-20T00:02:07;12.15;;;3.50;;
46651;SDS011;32377;52.182;5.398;2023-08-20T00:04:35;8.10;;;3.00;;
46651;SDS011;32377;52.182;5.398;2023-08-20T00:07:02;9.60;;;3.30;;
46651;SDS011;32377;52.182;5.398;2023-08-20T00:09:28;10.10;;;3.58;;
46651;SDS011;32377;52.182;5.398;2023-08-20T00:11:55;13.60;;;3.90;;
46651;SDS011;32377;52.182;5.398;2023-08-20T00:14:21;5.68;;;2.72;;
46651;SDS011;32377;52.182;5.398;2023-08-20T00:17:23;11.40;;;3.65;;
46651;SDS011;32377;52.182;5.398;2023-08-20T00:19:52;7.90;;;3.08;;
46651;SDS011;32377;52.182;5.398;2023-08-20T00:22:22;10.52;;;3.03;;
46651;SDS011;32377;52.182;5.398;2023-08-20T00:24:48;6.70;;;3.33;;
46651;SDS011;32377;52.182;5.398;2023-08-20T00:27:15;11.55;;;3.13;;
46651;SDS011;32377;52.182;5.398;2023-08-20T00:29:41;11.73;;;3.53;;
46651;SDS011;32377;52.182;5.398;2023-08-20T00:32:06;9.65;;;3.47;;
46651;SDS011;32377;52.182;5.398;2023-08-20T00:34:32;9.73;;;3.20;;
46651;SDS011;32377;52.182;5.398;2023-08-20T00:36:58;10.55;;;2.63;;
46651;SDS011;32377;52.182;5.398;2023-08-20T00:39:24;8.77;;;2.70;;
46651;SDS011;32377;52.182;5.398;2023-08-20T00:41:49;6.35;;;2.75;;
46651;SDS011;32377;52.182;5.398;2023-08-20T00:44:15;6.85;;;2.72;;
46651;SDS011;32377;52.182;5.398;2023-08-20T00:46:41;12.98;;;3.28;;
46651;SDS011;32377;52.182;5.398;2023-08-20T00:49:06;8.23;;;3.63;;
46651;SDS011;32377;52.182;5.398;2023-08-20T00:51:32;9.30;;;3.22;;
46651;SDS011;32377;52.182;5.398;2023-08-20T00:53:59;6.85;;;2.97;;
46651;SDS011;32377;52.182;5.398;2023-08-20T00:56:25;10.18;;;3.60;;
46651;SDS011;32377;52.182;5.398;2023-08-20T00:58:52;6.35;;;3.00;;
46651;SDS011;32377;52.182;5.398;2023-08-20T01:01:19;8.80;;;3.55;;
46651;SDS011;32377;52.182;5.398;2023-08-20T01:03:45;8.48;;;3.08;;
46651;SDS011;32377;52.182;5.398;2023-08-20T01:06:20;7.53;;;3.03;;
46651;SDS011;32377;52.182;5.398;2023-08-20T01:09:36;8.95;;;3.97;;
46651;SDS011;32377;52.182;5.398;2023-08-20T01:11:55;9.10;;;3.67;;
46651;SDS011;32377;52.182;5.398;2023-08-20T01:14:24;7.35;;;4.38;;
46651;SDS011;32377;52.182;5.398;2023-08-20T01:16:49;8.65;;;4.53;;
46651;SDS011;32377;52.182;5.398;2023-08-20T01:19:16;12.77;;;5.97;;
46651;SDS011;32377;52.182;5.398;2023-08-20T01:27:00;9.52;;;4.72;;
46651;SDS011;32377;52.182;5.398;2023-08-20T01:29:44;9.18;;;3.92;;
46651;SDS011;32377;52.182;5.398;2023-08-20T01:32:10;8.80;;;3.33;;
46651;SDS011;32377;52.182;5.398;2023-08-20T01:34:37;10.82;;;3.72;;
46651;SDS011;32377;52.182;5.398;2023-08-20T01:37:03;10.52;;;4.03;;
46651;SDS011;32377;52.182;5.398;2023-08-20T01:39:29;9.02;;;3.38;;
46651;SDS011;32377;52.182;5.398;2023-08-20T01:41:54;8.00;;;3.80;;
46651;SDS011;32377;52.182;5.398;2023-08-20T01:44:20;11.98;;;3.38;;
46651;SDS011;32377;52.182;5.398;2023-08-20T01:46:45;11.20;;;3.30;;
46651;SDS011;32377;52.182;5.398;2023-08-20T01:49:11;9.52;;;3.55;;
46651;SDS011;32377;52.182;5.398;2023-08-20T01:51:37;6.97;;;2.80;;
46651;SDS011;32377;52.182;5.398;2023-08-20T01:54:02;11.55;;;3.30;;
46651;SDS011;32377;52.182;5.398;2023-08-20T01:56:28;9.85;;;2.88;;
46651;SDS011;32377;52.182;5.398;2023-08-20T01:58:54;9.05;;;3.15;;
46651;SDS011;32377;52.182;5.398;2023-08-20T02:01:19;10.32;;;3.05;;
46651;SDS011;32377;52.182;5.398;2023-08-20T02:03:45;7.55;;;3.00;;
46651;SDS011;32377;52.182;5.398;2023-08-20T02:06:11;10.48;;;3.33;;
46651;SDS011;32377;52.182;5.398;2023-08-20T02:08:36;13.38;;;3.10;;
46651;SDS011;32377;52.182;5.398;2023-08-20T02:11:02;11.68;;;3.20;;
46651;SDS011;32377;52.182;5.398;2023-08-20T02:13:28;8.43;;;3.47;;
46651;SDS011;32377;52.182;5.398;2023-08-20T02:16:01;6.85;;;2.58;;
46651;SDS011;32377;52.182;5.398;2023-08-20T02:18:28;7.75;;;2.70;;
46651;SDS011;32377;52.182;5.398;2023-08-20T02:20:54;9.15;;;3.22;;
46651;SDS011;32377;52.182;5.398;2023-08-20T02:23:20;9.07;;;3.05;;
46651;SDS011;32377;52.182;5.398;2023-08-20T02:25:46;9.85;;;2.80;;
46651;SDS011;32377;52.182;5.398;2023-08-20T02:28:12;12.13;;;3.42;;
46651;SDS011;32377;52.182;5.398;2023-08-20T02:30:39;11.57;;;3.47;;
46651;SDS011;32377;52.182;5.398;2023-08-20T02:33:08;9.95;;;3.70;;
46651;SDS011;32377;52.182;5.398;2023-08-20T02:35:35;10.88;;;3.40;;
46651;SDS011;32377;52.182;5.398;2023-08-20T02:38:01;9.60;;;3.38;;
46651;SDS011;32377;52.182;5.398;2023-08-20T02:40:27;9.07;;;3.13;;
46651;SDS011;32377;52.182;5.398;2023-08-20T02:42:53;9.77;;;3.42;;
46651;SDS011;32377;52.182;5.398;2023-08-20T02:45:18;9.77;;;3.17;;
46651;SDS011;32377;52.182;5.398;2023-08-20T02:47:44;8.25;;;3.05;;
46651;SDS011;32377;52.182;5.398;2023-08-20T02:50:10;9.27;;;3.28;;
46651;SDS011;32377;52.182;5.398;2023-08-20T02:52:35;11.32;;;2.90;;
46651;SDS011;32377;52.182;5.398;2023-08-20T02:55:01;11.02;;;3.45;;
46651;SDS011;32377;52.182;5.398;2023-08-20T02:57:28;7.32;;;2.95;;
46651;SDS011;32377;52.182;5.398;2023-08-20T02:59:53;10.88;;;3.35;;
46651;SDS011;32377;52.182;5.398;2023-08-20T03:02:19;15.48;;;4.07;;
46651;SDS011;32377;52.182;5.398;2023-08-20T03:04:44;11.57;;;3.70;;
46651;SDS011;32377;52.182;5.398;2023-08-20T03:07:10;9.60;;;3.13;;
46651;SDS011;32377;52.182;5.398;2023-08-20T03:09:36;9.68;;;3.95;;
46651;SDS011;32377;52.182;5.398;2023-08-20T03:12:01;5.38;;;3.13;;
46651;SDS011;32377;52.182;5.398;2023-08-20T03:14:27;9.80;;;3.55;;
46651;SDS011;32377;52.182;5.398;2023-08-20T03:16:52;7.95;;;3.58;;
46651;SDS011;32377;52.182;5.398;2023-08-20T03:19:18;11.73;;;4.05;;
46651;SDS011;32377;52.182;5.398;2023-08-20T03:21:44;9.63;;;4.40;;
46651;SDS011;32377;52.182;5.398;2023-08-20T03:24:09;8.88;;;3.95;;
46651;SDS011;32377;52.182;5.398;2023-08-20T03:26:35;8.75;;;4.03;;
46651;SDS011;32377;52.182;5.398;2023-08-20T03:29:00;7.78;;;4.47;;
46651;SDS011;32377;52.182;5.398;2023-08-20T03:31:26;8.48;;;4.03;;
46651;SDS011;32377;52.182;5.398;2023-08-20T03:33:52;8.55;;;4.20;;
46651;SDS011;32377;52.182;5.398;2023-08-20T03:36:17;9.75;;;4.80;;
46651;SDS011;32377;52.182;5.398;2023-08-20T03:38:43;6.50;;;3.63;;
46651;SDS011;32377;52.182;5.398;2023-08-20T03:41:08;7.90;;;4.28;;
46651;SDS011;32377;52.182;5.398;2023-08-20T03:43:34;13.95;;;4.45;;
46651;SDS011;32377;52.182;5.398;2023-08-20T03:46:00;9.35;;;4.60;;
46651;SDS011;32377;52.182;5.398;2023-08-20T03:48:27;14.88;;;4.32;;
46651;SDS011;32377;52.182;5.398;2023-08-20T03:50:52;14.73;;;5.05;;
46651;SDS011;32377;52.182;5.398;2023-08-20T03:53:18;8.55;;;4.10;;
46651;SDS011;32377;52.182;5.398;2023-08-20T03:55:47;14.48;;;5.03;;
46651;SDS011;32377;52.182;5.398;2023-08-20T03:58:14;13.20;;;4.13;;
46651;SDS011;32377;52.182;5.398;2023-08-20T04:00:39;15.15;;;4.90;;
46651;SDS011;32377;52.182;5.398;2023-08-20T04:03:05;12.88;;;3.83;;
46651;SDS011;32377;52.182;5.398;2023-08-20T04:05:35;8.07;;;3.80;;
46651;SDS011;32377;52.182;5.398;2023-08-20T04:08:04;12.68;;;4.00;;
46651;SDS011;32377;52.182;5.398;2023-08-20T04:10:31;10.88;;;4.05;;
46651;SDS011;32377;52.182;5.398;2023-08-20T04:12:57;12.32;;;4.25;;
46651;SDS011;32377;52.182;5.398;2023-08-20T04:15:23;11.18;;;3.85;;
46651;SDS011;32377;52.182;5.398;2023-08-20T04:17:49;9.48;;;4.03;;
46651;SDS011;32377;52.182;5.398;2023-08-20T04:20:14;8.93;;;3.92;;
46651;SDS011;32377;52.182;5.398;2023-08-20T04:22:40;12.35;;;4.13;;
46651;SDS011;32377;52.182;5.398;2023-08-20T04:25:07;10.93;;;3.58;;
46651;SDS011;32377;52.182;5.398;2023-08-20T04:27:32;12.45;;;4.32;;
46651;SDS011;32377;52.182;5.398;2023-08-20T04:29:58;8.95;;;3.42;;
46651;SDS011;32377;52.182;5.398;2023-08-20T04:32:24;12.93;;;4.18;;
46651;SDS011;32377;52.182;5.398;2023-08-20T04:34:49;12.50;;;3.40;;
46651;SDS011;32377;52.182;5.398;2023-08-20T04:37:18;10.57;;;3.65;;
46651;SDS011;32377;52.182;5.398;2023-08-20T04:39:44;9.93;;;3.88;;
46651;SDS011;32377;52.182;5.398;2023-08-20T04:42:09;8.05;;;3.58;;
46651;SDS011;32377;52.182;5.398;2023-08-20T04:44:35;10.23;;;4.03;;
46651;SDS011;32377;52.182;5.398;2023-08-20T04:47:00;12.50;;;4.28;;
46651;SDS011;32377;52.182;5.398;2023-08-20T04:49:26;9.85;;;3.85;;
46651;SDS011;32377;52.182;5.398;2023-08-20T04:51:53;11.00;;;3.75;;
46651;SDS011;32377;52.182;5.398;2023-08-20T04:54:19;7.63;;;3.13;;
46651;SDS011;32377;52.182;5.398;2023-08-20T04:56:45;9.75;;;3.95;;
46651;SDS011;32377;52.182;5.398;2023-08-20T04:59:10;11.05;;;4.32;;
46651;SDS011;32377;52.182;5.398;2023-08-20T05:01:37;10.27;;;3.95;;
46651;SDS011;32377;52.182;5.398;2023-08-20T05:04:03;12.90;;;3.78;;
46651;SDS011;32377;52.182;5.398;2023-08-20T05:06:29;8.05;;;3.70;;
46651;SDS011;32377;52.182;5.398;2023-08-20T05:08:54;11.00;;;4.05;;
46651;SDS011;32377;52.182;5.398;2023-08-20T05:11:20;11.23;;;3.85;;
46651;SDS011;32377;52.182;5.398;2023-08-20T05:13:47;12.75;;;4.13;;
46651;SDS011;32377;52.182;5.398;2023-08-20T05:16:14;12.55;;;4.65;;
46651;SDS011;32377;52.182;5.398;2023-08-20T05:18:40;10.80;;;3.80;;
46651;SDS011;32377;52.182;5.398;2023-08-20T05:21:06;7.22;;;3.83;;
46651;SDS011;32377;52.182;5.398;2023-08-20T05:23:31;9.70;;;3.78;;
46651;SDS011;32377;52.182;5.398;2023-08-20T05:25:57;13.35;;;4.40;;
46651;SDS011;32377;52.182;5.398;2023-08-20T05:28:22;12.90;;;4.25;;
46651;SDS011;32377;52.182;5.398;2023-08-20T05:30:57;8.15;;;4.35;;
46651;SDS011;32377;52.182;5.398;2023-08-20T05:33:24;11.38;;;4.55;;
46651;SDS011;32377;52.182;5.398;2023-08-20T05:35:53;12.07;;;5.10;;
46651;SDS011;32377;52.182;5.398;2023-08-20T05:38:19;18.77;;;5.10;;
46651;SDS011;32377;52.182;5.398;2023-08-20T05:40:44;16.73;;;5.72;;
46651;SDS011;32377;52.182;5.398;2023-08-20T05:43:10;20.13;;;5.43;;
46651;SDS011;32377;52.182;5.398;2023-08-20T05:45:38;14.32;;;5.20;;
46651;SDS011;32377;52.182;5.398;2023-08-20T05:48:04;13.45;;;5.28;;
46651;SDS011;32377;52.182;5.398;2023-08-20T05:50:30;14.07;;;5.55;;
46651;SDS011;32377;52.182;5.398;2023-08-20T05:53:00;14.68;;;5.35;;
46651;SDS011;32377;52.182;5.398;2023-08-20T05:55:28;10.13;;;4.90;;
46651;SDS011;32377;52.182;5.398;2023-08-20T05:57:54;16.80;;;5.35;;
46651;SDS011;32377;52.182;5.398;2023-08-20T06:00:23;14.68;;;5.35;;
46651;SDS011;32377;52.182;5.398;2023-08-20T06:02:54;12.77;;;4.03;;
46651;SDS011;32377;52.182;5.398;2023-08-20T06:05:20;10.32;;;4.15;;
46651;SDS011;32377;52.182;5.398;2023-08-20T06:07:46;15.10;;;5.18;;
46651;SDS011;32377;52.182;5.398;2023-08-20T06:10:18;11.43;;;4.20;;
46651;SDS011;32377;52.182;5.398;2023-08-20T06:12:43;10.57;;;4.47;;
46651;SDS011;32377;52.182;5.398;2023-08-20T06:15:09;10.73;;;4.15;;
46651;SDS011;32377;52.182;5.398;2023-08-20T06:17:35;9.18;;;3.83;;
46651;SDS011;32377;52.182;5.398;2023-08-20T06:20:01;11.10;;;4.07;;
46651;SDS011;32377;52.182;5.398;2023-08-20T06:22:26;14.50;;;4.05;;
46651;SDS011;32377;52.182;5.398;2023-08-20T06:24:52;10.25;;;3.65;;
46651;SDS011;32377;52.182;5.398;2023-08-20T06:27:18;11.25;;;3.53;;
46651;SDS011;32377;52.182;5.398;2023-08-20T06:29:43;10.60;;;3.70;;
46651;SDS011;32377;52.182;5.398;2023-08-20T06:32:09;13.02;;;3.58;;
46651;SDS011;32377;52.182;5.398;2023-08-20T06:34:34;10.68;;;3.33;;
46651;SDS011;32377;52.182;5.398;2023-08-20T06:37:01;11.38;;;3.17;;
46651;SDS011;32377;52.182;5.398;2023-08-20T06:39:27;15.30;;;3.40;;
46651;SDS011;32377;52.182;5.398;2023-08-20T06:41:52;10.93;;;3.58;;
46651;SDS011;32377;52.182;5.398;2023-08-20T06:44:18;9.60;;;2.63;;
46651;SDS011;32377;52.182;5.398;2023-08-20T06:46:43;13.32;;;2.90;;
46651;SDS011;32377;52.182;5.398;2023-08-20T06:49:09;9.25;;;2.55;;
46651;SDS011;32377;52.182;5.398;2023-08-20T06:51:35;12.48;;;2.83;;
46651;SDS011;32377;52.182;5.398;2023-08-20T06:54:01;8.32;;;2.75;;
46651;SDS011;32377;52.182;5.398;2023-08-20T06:56:27;7.90;;;2.10;;
46651;SDS011;32377;52.182;5.398;2023-08-20T06:58:52;12.40;;;2.88;;
46651;SDS011;32377;52.182;5.398;2023-08-20T07:01:19;13.50;;;3.00;;
46651;SDS011;32377;52.182;5.398;2023-08-20T07:03:45;13.82;;;3.15;;
46651;SDS011;32377;52.182;5.398;2023-08-20T07:06:10;15.85;;;3.00;;
46651;SDS011;32377;52.182;5.398;2023-08-20T07:08:39;12.00;;;2.72;;
46651;SDS011;32377;52.182;5.398;2023-08-20T07:11:05;12.23;;;2.88;;
46651;SDS011;32377;52.182;5.398;2023-08-20T07:13:31;10.10;;;3.22;;
46651;SDS011;32377;52.182;5.398;2023-08-20T07:15:57;13.10;;;2.50;;
46651;SDS011;32377;52.182;5.398;2023-08-20T07:18:23;14.55;;;3.30;;
46651;SDS011;32377;52.182;5.398;2023-08-20T07:20:49;10.77;;;3.00;;
46651;SDS011;32377;52.182;5.398;2023-08-20T07:23:16;9.48;;;2.65;;
46651;SDS011;32377;52.182;5.398;2023-08-20T07:25:42;10.07;;;2.70;;
46651;SDS011;32377;52.182;5.398;2023-08-20T07:28:09;9.38;;;2.40;;
46651;SDS011;32377;52.182;5.398;2023-08-20T07:30:36;13.02;;;2.70;;
46651;SDS011;32377;52.182;5.398;2023-08-20T07:33:02;8.70;;;2.33;;
46651;SDS011;32377;52.182;5.398;2023-08-20T07:35:28;10.52;;;2.42;;
46651;SDS011;32377;52.182;5.398;2023-08-20T07:37:54;7.03;;;2.33;;
46651;SDS011;32377;52.182;5.398;2023-08-20T07:40:20;11.63;;;2.17;;
46651;SDS011;32377;52.182;5.398;2023-08-20T07:42:45;12.75;;;2.88;;
46651;SDS011;32377;52.182;5.398;2023-08-20T07:45:11;16.45;;;2.90;;
46651;SDS011;32377;52.182;5.398;2023-08-20T07:47:38;8.98;;;2.40;;
46651;SDS011;32377;52.182;5.398;2023-08-20T07:50:04;13.60;;;2.53;;
46651;SDS011;32377;52.182;5.398;2023-08-20T07:52:34;7.63;;;1.80;;
46651;SDS011;32377;52.182;5.398;2023-08-20T07:55:00;9.85;;;2.28;;
46651;SDS011;32377;52.182;5.398;2023-08-20T07:57:25;9.05;;;1.95;;
46651;SDS011;32377;52.182;5.398;2023-08-20T07:59:51;8.30;;;2.20;;
46651;SDS011;32377;52.182;5.398;2023-08-20T08:02:17;9.88;;;3.03;;
46651;SDS011;32377;52.182;5.398;2023-08-20T08:04:43;12.65;;;2.38;;
46651;SDS011;32377;52.182;5.398;2023-08-20T08:07:09;10.95;;;2.08;;
46651;SDS011;32377;52.182;5.398;2023-08-20T08:09:35;8.38;;;2.00;;
46651;SDS011;32377;52.182;5.398;2023-08-20T08:12:01;6.70;;;2.30;;
46651;SDS011;32377;52.182;5.398;2023-08-20T08:14:27;10.18;;;2.05;;
46651;SDS011;32377;52.182;5.398;2023-08-20T08:16:53;10.85;;;2.20;;
46651;SDS011;32377;52.182;5.398;2023-08-20T08:19:19;14.38;;;2.60;;
46651;SDS011;32377;52.182;5.398;2023-08-20T08:21:45;9.73;;;1.92;;
46651;SDS011;32377;52.182;5.398;2023-08-20T08:24:12;6.78;;;2.33;;
46651;SDS011;32377;52.182;5.398;2023-08-20T08:26:38;10.45;;;1.92;;
46651;SDS011;32377;52.182;5.398;2023-08-20T08:29:05;5.82;;;1.67;;
46651;SDS011;32377;52.182;5.398;2023-08-20T08:31:31;6.50;;;1.77;;
46651;SDS011;32377;52.182;5.398;2023-08-20T08:33:56;6.60;;;1.70;;
46651;SDS011;32377;52.182;5.398;2023-08-20T08:36:22;9.20;;;1.95;;
46651;SDS011;32377;52.182;5.398;2023-08-20T08:38:50;7.35;;;1.80;;
46651;SDS011;32377;52.182;5.398;2023-08-20T08:41:16;9.25;;;1.92;;
46651;SDS011;32377;52.182;5.398;2023-08-20T08:43:43;7.60;;;1.95;;
46651;SDS011;32377;52.182;5.398;2023-08-20T08:46:12;10.05;;;1.67;;
46651;SDS011;32377;52.182;5.398;2023-08-20T08:48:45;7.53;;;1.67;;
46651;SDS011;32377;52.182;5.398;2023-08-20T08:51:12;3.58;;;1.73;;
46651;SDS011;32377;52.182;5.398;2023-08-20T08:53:38;9.50;;;1.85;;
46651;SDS011;32377;52.182;5.398;2023-08-20T08:56:04;6.28;;;1.58;;
46651;SDS011;32377;52.182;5.398;2023-08-20T08:58:32;7.18;;;1.35;;
46651;SDS011;32377;52.182;5.398;2023-08-20T09:00:58;5.22;;;1.80;;
46651;SDS011;32377;52.182;5.398;2023-08-20T09:03:24;5.95;;;1.67;;
46651;SDS011;32377;52.182;5.398;2023-08-20T09:05:53;6.60;;;1.40;;
46651;SDS011;32377;52.182;5.398;2023-08-20T09:08:33;5.75;;;1.63;;
46651;SDS011;32377;52.182;5.398;2023-08-20T09:11:00;3.63;;;1.17;;
46651;SDS011;32377;52.182;5.398;2023-08-20T09:13:33;7.28;;;1.80;;
46651;SDS011;32377;52.182;5.398;2023-08-20T09:16:07;6.90;;;1.40;;
46651;SDS011;32377;52.182;5.398;2023-08-20T09:18:46;7.85;;;1.70;;
46651;SDS011;32377;52.182;5.398;2023-08-20T09:21:12;5.47;;;1.48;;
46651;SDS011;32377;52.182;5.398;2023-08-20T09:23:38;7.55;;;1.73;;
46651;SDS011;32377;52.182;5.398;2023-08-20T09:26:05;3.28;;;1.00;;
46651;SDS011;32377;52.182;5.398;2023-08-20T09:28:44;4.43;;;1.52;;
46651;SDS011;32377;52.182;5.398;2023-08-20T09:31:11;4.47;;;1.02;;
46651;SDS011;32377;52.182;5.398;2023-08-20T09:33:59;5.25;;;1.50;;
46651;SDS011;32377;52.182;5.398;2023-08-20T09:36:30;7.45;;;1.25;;
46651;SDS011;32377;52.182;5.398;2023-08-20T09:38:58;6.15;;;1.33;;
46651;SDS011;32377;52.182;5.398;2023-08-20T09:41:23;5.72;;;1.30;;
46651;SDS011;32377;52.182;5.398;2023-08-20T09:43:52;3.85;;;0.98;;
46651;SDS011;32377;52.182;5.398;2023-08-20T09:46:22;5.82;;;1.45;;
46651;SDS011;32377;52.182;5.398;2023-08-20T09:48:49;4.53;;;1.17;;
46651;SDS011;32377;52.182;5.398;2023-08-20T09:51:17;3.22;;;1.20;;
46651;SDS011;32377;52.182;5.398;2023-08-20T09:53:51;4.40;;;1.00;;
46651;SDS011;32377;52.182;5.398;2023-08-20T09:56:38;7.97;;;1.60;;
46651;SDS011;32377;52.182;5.398;2023-08-20T09:59:04;6.30;;;1.15;;
46651;SDS011;32377;52.182;5.398;2023-08-20T10:01:31;7.63;;;1.55;;
46651;SDS011;32377;52.182;5.398;2023-08-20T10:03:58;9.63;;;1.77;;
46651;SDS011;32377;52.182;5.398;2023-08-20T10:06:24;4.70;;;1.33;;
46651;SDS011;32377;52.182;5.398;2023-08-20T10:08:51;5.30;;;1.40;;
46651;SDS011;32377;52.182;5.398;2023-08-20T10:11:18;5.68;;;1.23;;
46651;SDS011;32377;52.182;5.398;2023-08-20T10:13:44;6.25;;;1.60;;
46651;SDS011;32377;52.182;5.398;2023-08-20T10:16:12;8.55;;;1.50;;
46651;SDS011;32377;52.182;5.398;2023-08-20T10:18:38;6.28;;;1.25;;
46651;SDS011;32377;52.182;5.398;2023-08-20T10:21:05;3.63;;;1.17;;
46651;SDS011;32377;52.182;5.398;2023-08-20T10:23:33;4.18;;;1.33;;
46651;SDS011;32377;52.182;5.398;2023-08-20T10:26:08;4.78;;;1.00;;
46651;SDS011;32377;52.182;5.398;2023-08-20T10:28:34;8.02;;;1.52;;
46651;SDS011;32377;52.182;5.398;2023-08-20T10:31:10;6.03;;;1.10;;
46651;SDS011;32377;52.182;5.398;2023-08-20T10:36:15;5.00;;;1.60;;
46651;SDS011;32377;52.182;5.398;2023-08-20T10:38:52;5.95;;;1.20;;
46651;SDS011;32377;52.182;5.398;2023-08-20T10:41:26;3.80;;;1.30;;
46651;SDS011;32377;52.182;5.398;2023-08-20T10:43:53;7.47;;;1.17;;
46651;SDS011;32377;52.182;5.398;2023-08-20T10:46:23;5.40;;;1.30;;
46651;SDS011;32377;52.182;5.398;2023-08-20T10:51:17;5.43;;;1.38;;
46651;SDS011;32377;52.182;5.398;2023-08-20T10:59:22;5.95;;;1.35;;
46651;SDS011;32377;52.182;5.398;2023-08-20T11:01:52;5.57;;;1.10;;
46651;SDS011;32377;52.182;5.398;2023-08-20T11:04:20;3.65;;;1.25;;
46651;SDS011;32377;52.182;5.398;2023-08-20T11:06:54;7.47;;;1.20;;
46651;SDS011;32377;52.182;5.398;2023-08-20T11:09:22;4.30;;;1.08;;
46651;SDS011;32377;52.182;5.398;2023-08-20T11:11:49;3.40;;;1.15;;
46651;SDS011;32377;52.182;5.398;2023-08-20T11:14:17;4.28;;;1.17;;
46651;SDS011;32377;52.182;5.398;2023-08-20T11:16:44;3.92;;;1.15;;
46651;SDS011;32377;52.182;5.398;2023-08-20T11:19:11;6.53;;;1.38;;
46651;SDS011;32377;52.182;5.398;2023-08-20T11:21:39;6.78;;;1.40;;
46651;SDS011;32377;52.182;5.398;2023-08-20T11:24:08;3.00;;;1.38;;
46651;SDS011;32377;52.182;5.398;2023-08-20T11:26:34;8.57;;;1.25;;
46651;SDS011;32377;52.182;5.398;2023-08-20T11:29:02;5.53;;;1.42;;
46651;SDS011;32377;52.182;5.398;2023-08-20T11:31:31;5.55;;;1.20;;
46651;SDS011;32377;52.182;5.398;2023-08-20T11:33:57;9.13;;;1.17;;
46651;SDS011;32377;52.182;5.398;2023-08-20T11:36:23;6.20;;;1.38;;
46651;SDS011;32377;52.182;5.398;2023-08-20T11:38:52;7.28;;;1.35;;
46651;SDS011;32377;52.182;5.398;2023-08-20T11:41:18;5.50;;;1.17;;
46651;SDS011;32377;52.182;5.398;2023-08-20T11:43:46;5.72;;;1.60;;
46651;SDS011;32377;52.182;5.398;2023-08-20T11:46:15;5.43;;;1.33;;
46651;SDS011;32377;52.182;5.398;2023-08-20T11:51:37;4.47;;;1.70;;
46651;SDS011;32377;52.182;5.398;2023-08-20T11:54:07;2.75;;;0.90;;
46651;SDS011;32377;52.182;5.398;2023-08-20T11:56:34;5.35;;;1.30;;
46651;SDS011;32377;52.182;5.398;2023-08-20T11:59:00;7.55;;;1.10;;
46651;SDS011;32377;52.182;5.398;2023-08-20T12:01:32;5.22;;;1.00;;
46651;SDS011;32377;52.182;5.398;2023-08-20T12:04:03;6.97;;;1.58;;
46651;SDS011;32377;52.182;5.398;2023-08-20T12:06:29;5.20;;;1.17;;
46651;SDS011;32377;52.182;5.398;2023-08-20T12:08:56;2.70;;;0.95;;
46651;SDS011;32377;52.182;5.398;2023-08-20T12:11:29;4.28;;;1.40;;
46651;SDS011;32377;52.182;5.398;2023-08-20T12:13:55;2.42;;;0.75;;
46651;SDS011;32377;52.182;5.398;2023-08-20T12:16:22;4.00;;;1.30;;
46651;SDS011;32377;52.182;5.398;2023-08-20T12:18:49;4.35;;;1.00;;
46651;SDS011;32377;52.182;5.398;2023-08-20T12:21:15;7.20;;;1.30;;
46651;SDS011;32377;52.182;5.398;2023-08-20T12:23:41;5.75;;;1.58;;
46651;SDS011;32377;52.182;5.398;2023-08-20T12:26:06;6.30;;;1.75;;
46651;SDS011;32377;52.182;5.398;2023-08-20T12:28:35;4.95;;;1.33;;
46651;SDS011;32377;52.182;5.398;2023-08-20T12:31:00;10.50;;;1.73;;
46651;SDS011;32377;52.182;5.398;2023-08-20T12:33:28;5.18;;;1.00;;
46651;SDS011;32377;52.182;5.398;2023-08-20T12:35:53;7.68;;;1.30;;
46651;SDS011;32377;52.182;5.398;2023-08-20T12:38:20;4.70;;;1.20;;
46651;SDS011;32377;52.182;5.398;2023-08-20T12:40:45;7.72;;;1.45;;
46651;SDS011;32377;52.182;5.398;2023-08-20T12:43:11;4.70;;;1.13;;
46651;SDS011;32377;52.182;5.398;2023-08-20T12:45:37;4.30;;;1.05;;
46651;SDS011;32377;52.182;5.398;2023-08-20T12:48:03;3.58;;;1.13;;
46651;SDS011;32377;52.182;5.398;2023-08-20T12:50:29;7.47;;;1.40;;
46651;SDS011;32377;52.182;5.398;2023-08-20T12:52:55;3.78;;;1.40;;
46651;SDS011;32377;52.182;5.398;2023-08-20T12:55:21;6.03;;;1.38;;
46651;SDS011;32377;52.182;5.398;2023-08-20T12:57:56;6.97;;;1.52;;
46651;SDS011;32377;52.182;5.398;2023-08-20T13:00:25;3.60;;;1.48;;
46651;SDS011;32377;52.182;5.398;2023-08-20T13:02:51;8.02;;;1.10;;
46651;SDS011;32377;52.182;5.398;2023-08-20T13:05:19;6.40;;;1.65;;
46651;SDS011;32377;52.182;5.398;2023-08-20T13:07:46;6.07;;;1.20;;
46651;SDS011;32377;52.182;5.398;2023-08-20T13:10:12;4.63;;;1.00;;
46651;SDS011;32377;52.182;5.398;2023-08-20T13:12:39;5.53;;;1.30;;
46651;SDS011;32377;52.182;5.398;2023-08-20T13:15:07;4.70;;;1.20;;
46651;SDS011;32377;52.182;5.398;2023-08-20T13:17:34;5.40;;;1.42;;
46651;SDS011;32377;52.182;5.398;2023-08-20T13:20:00;3.25;;;1.10;;
46651;SDS011;32377;52.182;5.398;2023-08-20T13:22:26;5.00;;;1.23;;
46651;SDS011;32377;52.182;5.398;2023-08-20T13:24:51;4.15;;;1.15;;
46651;SDS011;32377;52.182;5.398;2023-08-20T13:27:17;7.38;;;1.63;;
46651;SDS011;32377;52.182;5.398;2023-08-20T13:29:43;5.75;;;1.17;;
46651;SDS011;32377;52.182;5.398;2023-08-20T13:32:09;4.35;;;1.23;;
46651;SDS011;32377;52.182;5.398;2023-08-20T13:34:34;6.97;;;1.40;;
46651;SDS011;32377;52.182;5.398;2023-08-20T13:37:00;8.18;;;1.50;;
46651;SDS011;32377;52.182;5.398;2023-08-20T13:39:26;4.13;;;1.35;;
46651;SDS011;32377;52.182;5.398;2023-08-20T13:41:51;5.22;;;1.08;;
46651;SDS011;32377;52.182;5.398;2023-08-20T13:44:17;6.20;;;1.38;;
46651;SDS011;32377;52.182;5.398;2023-08-20T13:46:44;6.25;;;1.52;;
46651;SDS011;32377;52.182;5.398;2023-08-20T13:49:10;7.30;;;1.52;;
46651;SDS011;32377;52.182;5.398;2023-08-20T13:51:36;8.85;;;1.55;;
46651;SDS011;32377;52.182;5.398;2023-08-20T13:54:01;6.57;;;1.80;;
46651;SDS011;32377;52.182;5.398;2023-08-20T13:56:27;6.50;;;1.20;;
46651;SDS011;32377;52.182;5.398;2023-08-20T13:58:53;6.53;;;1.40;;
46651;SDS011;32377;52.182;5.398;2023-08-20T14:01:19;4.78;;;1.30;;
46651;SDS011;32377;52.182;5.398;2023-08-20T14:03:44;9.40;;;1.30;;
46651;SDS011;32377;52.182;5.398;2023-08-20T14:06:10;3.92;;;1.13;;
46651;SDS011;32377;52.182;5.398;2023-08-20T14:08:36;3.85;;;1.05;;
46651;SDS011;32377;52.182;5.398;2023-08-20T14:11:01;4.53;;;1.10;;
46651;SDS011;32377;52.182;5.398;2023-08-20T14:13:28;4.18;;;1.00;;
46651;SDS011;32377;52.182;5.398;2023-08-20T14:15:54;4.35;;;1.15;;
46651;SDS011;32377;52.182;5.398;2023-08-20T14:18:19;2.92;;;1.35;;
46651;SDS011;32377;52.182;5.398;2023-08-20T14:20:45;5.10;;;1.60;;
46651;SDS011;32377;52.182;5.398;2023-08-20T14:23:11;7.88;;;1.90;;
46651;SDS011;32377;52.182;5.398;2023-08-20T14:25:37;4.75;;;1.20;;
46651;SDS011;32377;52.182;5.398;2023-08-20T14:28:05;6.55;;;1.42;;
46651;SDS011;32377;52.182;5.398;2023-08-20T14:30:31;4.20;;;1.00;;
46651;SDS011;32377;52.182;5.398;2023-08-20T14:33:00;3.67;;;1.00;;
46651;SDS011;32377;52.182;5.398;2023-08-20T14:35:26;6.47;;;1.45;;
46651;SDS011;32377;52.182;5.398;2023-08-20T14:37:53;3.28;;;1.08;;
46651;SDS011;32377;52.182;5.398;2023-08-20T14:40:19;5.28;;;1.55;;
46651;SDS011;32377;52.182;5.398;2023-08-20T14:42:44;5.28;;;1.02;;
46651;SDS011;32377;52.182;5.398;2023-08-20T14:45:10;2.50;;;1.00;;
46651;SDS011;32377;52.182;5.398;2023-08-20T14:47:36;5.63;;;1.38;;
46651;SDS011;32377;52.182;5.398;2023-08-20T14:50:01;7.75;;;1.20;;
46651;SDS011;32377;52.182;5.398;2023-08-20T14:52:28;6.35;;;1.33;;
46651;SDS011;32377;52.182;5.398;2023-08-20T14:54:53;4.72;;;1.40;;
46651;SDS011;32377;52.182;5.398;2023-08-20T14:57:19;3.42;;;0.90;;
46651;SDS011;32377;52.182;5.398;2023-08-20T14:59:44;5.45;;;1.05;;
46651;SDS011;32377;52.182;5.398;2023-08-20T15:02:10;3.88;;;1.10;;